createdAt,value
2022-08-26T00:01:45.245Z,61.21
2022-08-26T00:04:12.797Z,61.63
2022-08-26T00:06:42.731Z,61.73
2022-08-26T00:09:16.177Z,61.45
2022-08-26T00:11:45.466Z,61.83
2022-08-26T00:14:14.085Z,61.90
2022-08-26T00:16:47.479Z,61.19
2022-08-26T00:19:17.255Z,61.76
2022-08-26T00:21:44.452Z,61.58
2022-08-26T00:24:11.401Z,61.54
2022-08-26T00:26:39.468Z,61.81
2022-08-26T00:29:08.240Z,62.29
2022-08-26T00:31:36.852Z,63.25
2022-08-26T00:34:04.503Z,62.98
2022-08-26T00:36:32.365Z,61.99
2022-08-26T00:38:59.566Z,61.93
2022-08-26T00:41:28.933Z,63.63
2022-08-26T00:43:55.840Z,62.22
2022-08-26T00:46:29.290Z,61.68
2022-08-26T00:49:12.333Z,61.83
2022-08-26T00:51:52.587Z,62.36
2022-08-26T00:54:22.996Z,62.87
2022-08-26T00:56:59.964Z,63.66
2022-08-26T00:59:27.652Z,64.04
2022-08-26T01:01:54.513Z,64.33
2022-08-26T01:04:23.478Z,64.39
2022-08-26T01:06:54.657Z,65.18
2022-08-26T01:09:23.373Z,66.35
2022-08-26T01:11:53.199Z,65.43
2022-08-26T01:14:22.384Z,64.66
2022-08-26T01:16:50.182Z,64.48
2022-08-26T01:19:28.508Z,63.64
2022-08-26T01:21:57.951Z,63.40
2022-08-26T01:24:27.798Z,64.52
2022-08-26T01:27:01.864Z,64.84
2022-08-26T01:29:30.114Z,65.36
2022-08-26T01:31:57.866Z,65.90
2022-08-26T01:34:36.592Z,64.54
2022-08-26T01:37:15.626Z,64.04
2022-08-26T01:39:44.975Z,63.10
2022-08-26T01:42:14.975Z,65.16
2022-08-26T01:44:54.246Z,65.41
2022-08-26T01:47:24.452Z,65.31
2022-08-26T01:49:55.040Z,65.17
2022-08-26T01:52:27.645Z,65.58
2022-08-26T01:54:57.283Z,65.43
2022-08-26T01:57:25.015Z,66.04
2022-08-26T01:59:55.552Z,65.97
2022-08-26T02:02:23.904Z,66.15
2022-08-26T02:04:57.379Z,65.94
2022-08-26T02:07:26.662Z,65.01
2022-08-26T02:09:54.487Z,65.11
2022-08-26T02:12:21.831Z,63.98
2022-08-26T02:14:53.843Z,63.28
2022-08-26T02:17:24.802Z,64.19
2022-08-26T02:19:52.219Z,63.47
2022-08-26T02:22:22.532Z,62.97
2022-08-26T02:24:57.278Z,64.60
2022-08-26T02:27:32.169Z,66.79
2022-08-26T02:30:07.160Z,68.30
2022-08-26T02:32:34.113Z,67.19
2022-08-26T02:35:02.066Z,67.62
2022-08-26T02:37:31.458Z,68.50
2022-08-26T02:39:58.645Z,67.06
2022-08-26T02:42:25.415Z,66.87
2022-08-26T02:44:52.397Z,65.47
2022-08-26T02:47:19.217Z,64.95
2022-08-26T02:49:47.231Z,65.32
2022-08-26T02:52:14.566Z,66.27
2022-08-26T02:54:41.362Z,66.36
2022-08-26T02:57:09.287Z,66.77
2022-08-26T02:59:36.308Z,65.98
2022-08-26T03:02:03.543Z,66.06
2022-08-26T03:04:33.301Z,65.30
2022-08-26T03:07:00.304Z,64.74
2022-08-26T03:09:27.454Z,63.55
2022-08-26T03:11:55.666Z,63.47
2022-08-26T03:14:24.098Z,63.68
2022-08-26T03:16:54.115Z,62.86
2022-08-26T03:19:23.379Z,62.70
2022-08-26T03:21:50.952Z,62.73
2022-08-26T03:24:19.581Z,64.80
2022-08-26T03:26:52.131Z,66.73
2022-08-26T03:29:39.056Z,65.36
2022-08-26T03:32:06.367Z,65.13
2022-08-26T03:34:33.281Z,64.87
2022-08-26T03:37:00.322Z,65.15
2022-08-26T03:39:27.440Z,65.10
2022-08-26T03:41:59.022Z,64.21
2022-08-26T03:44:26.857Z,64.18
2022-08-26T03:46:55.000Z,63.45
2022-08-26T03:49:22.721Z,62.92
2022-08-26T03:51:50.155Z,64.27
2022-08-26T03:54:17.724Z,64.33
2022-08-26T03:56:44.458Z,65.57
2022-08-26T03:59:13.473Z,65.89
2022-08-26T04:01:40.278Z,64.57
2022-08-26T04:04:07.122Z,65.21
2022-08-26T04:06:37.260Z,65.54
2022-08-26T04:09:07.270Z,65.74
2022-08-26T04:11:37.744Z,65.82
2022-08-26T04:14:08.901Z,66.02
2022-08-26T04:16:35.900Z,66.46
2022-08-26T04:19:03.130Z,66.62
2022-08-26T04:21:30.001Z,67.39
2022-08-26T04:23:58.297Z,68.54
2022-08-26T04:26:25.676Z,68.50
2022-08-26T04:28:55.084Z,69.40
2022-08-26T04:31:22.657Z,69.51
2022-08-26T04:33:50.986Z,69.87
2022-08-26T04:36:20.261Z,69.35
2022-08-26T04:38:47.661Z,69.71
2022-08-26T04:41:14.895Z,69.21
2022-08-26T04:43:43.210Z,67.97
2022-08-26T04:46:12.915Z,67.26
2022-08-26T04:48:41.361Z,66.48
2022-08-26T04:51:09.859Z,65.26
2022-08-26T04:53:37.482Z,64.10
2022-08-26T04:56:05.368Z,63.27
2022-08-26T04:58:32.841Z,62.06
2022-08-26T05:00:59.862Z,61.01
2022-08-26T05:03:30.501Z,59.25
2022-08-26T05:05:58.739Z,57.93
2022-08-26T05:08:26.175Z,56.73
2022-08-26T05:10:56.379Z,55.28
2022-08-26T05:13:26.371Z,55.25
2022-08-26T05:15:54.463Z,53.76
2022-08-26T05:18:24.356Z,53.34
2022-08-26T05:20:54.874Z,52.54
2022-08-26T05:23:23.976Z,51.38
2022-08-26T05:25:57.036Z,50.21
2022-08-26T05:28:27.144Z,50.23
2022-08-26T05:30:54.583Z,49.33
2022-08-26T05:33:22.172Z,46.92
2022-08-26T05:35:49.612Z,46.68
2022-08-26T05:38:18.810Z,45.99
2022-08-26T05:40:49.313Z,44.85
2022-08-26T05:43:20.741Z,44.10
2022-08-26T05:45:50.254Z,43.71
2022-08-26T05:48:22.795Z,43.89
2022-08-26T05:50:53.070Z,43.09
2022-08-26T05:53:21.827Z,42.81
2022-08-26T05:55:52.468Z,41.93
2022-08-26T05:58:21.916Z,41.63
2022-08-26T06:01:01.448Z,41.70
2022-08-26T06:03:31.784Z,39.98
2022-08-26T06:05:58.858Z,39.83
2022-08-26T06:08:25.643Z,40.96
2022-08-26T06:11:00.083Z,39.81
2022-08-26T06:13:30.219Z,38.80
2022-08-26T06:15:59.553Z,39.52
2022-08-26T06:18:32.912Z,40.83
2022-08-26T06:21:18.536Z,39.79
2022-08-26T06:24:05.743Z,37.65
2022-08-26T06:26:34.196Z,38.76
2022-08-26T06:29:05.391Z,38.85
2022-08-26T06:31:33.657Z,39.29
2022-08-26T06:34:01.299Z,38.16
2022-08-26T06:36:30.718Z,38.23
2022-08-26T06:39:01.673Z,37.90
2022-08-26T06:41:28.775Z,37.90
2022-08-26T06:43:56.851Z,37.12
2022-08-26T06:46:24.151Z,36.38
2022-08-26T06:48:54.323Z,36.14
2022-08-26T06:51:24.131Z,38.20
2022-08-26T06:53:53.414Z,36.08
2022-08-26T06:56:23.568Z,36.54
2022-08-26T06:58:51.918Z,36.29
2022-08-26T07:01:30.488Z,38.26
2022-08-26T07:04:00.795Z,36.14
2022-08-26T07:06:28.575Z,34.88
2022-08-26T07:09:04.963Z,37.06
2022-08-26T07:11:33.939Z,35.82
2022-08-26T07:14:01.223Z,35.58
2022-08-26T07:16:31.111Z,36.18
2022-08-26T07:18:58.193Z,37.18
2022-08-26T07:21:26.172Z,36.13
2022-08-26T07:23:58.690Z,39.60
2022-08-26T07:26:30.226Z,36.55
2022-08-26T07:28:58.581Z,35.75
2022-08-26T07:31:28.478Z,36.01
2022-08-26T07:33:56.928Z,34.93
2022-08-26T07:36:24.805Z,34.16
2022-08-26T07:38:53.039Z,35.99
2022-08-26T07:41:24.469Z,35.68
2022-08-26T07:43:52.975Z,36.23
2022-08-26T07:46:27.218Z,33.63
2022-08-26T07:48:57.618Z,33.60
2022-08-26T07:51:25.078Z,35.24
2022-08-26T07:53:53.078Z,33.51
2022-08-26T07:56:22.174Z,34.58
2022-08-26T07:58:51.483Z,30.80
2022-08-26T08:01:24.258Z,30.77
2022-08-26T08:03:54.201Z,30.76
2022-08-26T08:06:27.046Z,32.64
2022-08-26T08:08:54.871Z,34.58
2022-08-26T08:11:22.535Z,33.11
2022-08-26T08:13:52.365Z,32.02
2022-08-26T08:16:25.079Z,33.03
2022-08-26T08:18:53.728Z,32.51
2022-08-26T08:21:24.131Z,32.26
2022-08-26T08:23:52.870Z,32.03
2022-08-26T08:26:20.620Z,32.04
2022-08-26T08:28:48.158Z,32.23
2022-08-26T08:31:52.513Z,31.72
2022-08-26T08:34:11.038Z,29.14
2022-08-26T08:36:37.901Z,30.84
2022-08-26T08:39:05.447Z,30.94
2022-08-26T08:42:04.504Z,30.53
2022-08-26T08:44:32.248Z,30.50
2022-08-26T08:47:06.301Z,28.61
2022-08-26T08:49:34.623Z,29.55
2022-08-26T08:52:23.224Z,30.55
2022-08-26T08:54:55.573Z,29.83
2022-08-26T08:57:46.929Z,28.08
2022-08-26T09:00:18.981Z,27.61
2022-08-26T09:02:58.393Z,29.72
2022-08-26T09:05:34.040Z,28.92
2022-08-26T09:08:20.132Z,28.22
2022-08-26T09:10:54.845Z,28.46
2022-08-26T09:13:26.034Z,28.38
2022-08-26T09:16:10.673Z,29.83
2022-08-26T09:18:52.455Z,29.92
2022-08-26T09:21:23.545Z,29.12
2022-08-26T09:23:56.634Z,28.56
2022-08-26T09:26:47.385Z,28.81
2022-08-26T09:29:27.087Z,28.38
2022-08-26T09:32:26.628Z,28.28
2022-08-26T09:34:54.114Z,28.71
2022-08-26T09:40:17.942Z,28.09
2022-08-26T09:42:45.414Z,29.42
2022-08-26T09:45:15.704Z,28.83
2022-08-26T09:47:47.930Z,29.86
2022-08-26T09:50:32.351Z,29.44
2022-08-26T09:53:28.469Z,29.29
2022-08-26T09:56:32.849Z,29.31
2022-08-26T09:59:01.214Z,28.33
2022-08-26T10:01:33.942Z,28.06
2022-08-26T10:04:14.270Z,29.15
2022-08-26T10:06:54.655Z,28.18
2022-08-26T10:09:25.861Z,29.77
2022-08-26T10:12:00.796Z,28.50
2022-08-26T10:14:50.502Z,28.07
2022-08-26T10:17:25.366Z,28.73
2022-08-26T10:19:57.915Z,28.91
2022-08-26T10:22:41.394Z,28.96
2022-08-26T10:25:16.188Z,30.20
2022-08-26T10:28:19.773Z,29.52
2022-08-26T10:30:53.132Z,28.22
2022-08-26T10:33:19.964Z,26.67
2022-08-26T10:36:02.001Z,28.93
2022-08-26T10:38:40.616Z,26.16
2022-08-26T10:41:16.841Z,28.55
2022-08-26T10:43:55.637Z,28.24
2022-08-26T10:46:27.390Z,26.95
2022-08-26T10:49:06.732Z,27.16
2022-08-26T10:51:42.389Z,24.36
2022-08-26T10:54:17.321Z,25.14
2022-08-26T10:57:02.839Z,25.50
2022-08-26T10:59:57.448Z,24.54
2022-08-26T11:02:37.125Z,23.70
2022-08-26T11:05:19.839Z,24.76
2022-08-26T11:07:52.832Z,26.98
2022-08-26T11:10:21.862Z,30.34
2022-08-26T11:12:58.032Z,27.21
2022-08-26T11:15:25.121Z,28.41
2022-08-26T11:17:52.113Z,29.02
2022-08-26T11:20:41.892Z,28.79
2022-08-26T11:23:21.253Z,31.17
2022-08-26T11:25:57.481Z,28.64
2022-08-26T11:28:37.711Z,28.40
2022-08-26T11:31:10.315Z,27.55
2022-08-26T11:33:59.410Z,28.79
2022-08-26T11:36:41.321Z,30.34
2022-08-26T11:39:30.041Z,30.61
2022-08-26T11:42:02.920Z,28.01
2022-08-26T11:44:40.525Z,29.17
2022-08-26T11:47:11.569Z,29.64
2022-08-26T11:49:39.246Z,29.98
2022-08-26T11:52:21.095Z,26.86
2022-08-26T11:55:11.201Z,29.37
2022-08-26T11:57:46.542Z,27.69
2022-08-26T12:00:26.617Z,27.65
2022-08-26T12:02:55.853Z,29.83
2022-08-26T12:05:38.538Z,29.00
2022-08-26T12:08:11.366Z,31.59
2022-08-26T12:10:38.537Z,29.09
2022-08-26T12:13:07.314Z,30.68
2022-08-26T12:15:35.866Z,29.86
2022-08-26T12:18:28.627Z,31.17
2022-08-26T12:21:00.701Z,28.14
2022-08-26T12:23:36.543Z,29.02
2022-08-26T12:26:11.263Z,29.42
2022-08-26T12:28:54.287Z,30.22
2022-08-26T12:31:46.805Z,31.02
2022-08-26T12:34:18.119Z,29.91
2022-08-26T12:36:48.954Z,31.99
2022-08-26T12:39:26.208Z,28.92
2022-08-26T12:41:56.661Z,27.38
2022-08-26T12:44:53.785Z,27.94
2022-08-26T12:47:36.933Z,27.29
2022-08-26T12:50:32.921Z,27.55
2022-08-26T12:53:03.677Z,28.78
2022-08-26T12:55:33.722Z,27.15
2022-08-26T12:58:13.019Z,27.20
2022-08-26T13:00:43.040Z,28.70
2022-08-26T13:03:33.925Z,27.43
2022-08-26T13:06:31.440Z,26.69
2022-08-26T13:09:05.316Z,26.56
2022-08-26T13:11:41.474Z,26.37
2022-08-26T13:14:23.876Z,24.91
2022-08-26T13:16:52.998Z,24.84
2022-08-26T13:19:22.309Z,24.23
2022-08-26T13:21:59.610Z,22.81
2022-08-26T13:24:33.088Z,26.10
2022-08-26T13:27:00.345Z,24.82
2022-08-26T13:29:27.551Z,25.86
2022-08-26T13:31:55.893Z,25.39
2022-08-26T13:34:24.825Z,25.45
2022-08-26T13:36:54.982Z,25.63
2022-08-26T13:39:23.110Z,24.72
2022-08-26T13:41:50.285Z,23.97
2022-08-26T13:44:19.623Z,24.32
2022-08-26T13:46:46.627Z,24.28
2022-08-26T13:49:13.775Z,25.20
2022-08-26T13:51:41.854Z,24.76
2022-08-26T13:54:08.928Z,23.57
2022-08-26T13:56:36.416Z,22.74
2022-08-26T13:59:03.536Z,25.83
2022-08-26T14:01:32.788Z,27.10
2022-08-26T14:03:59.990Z,25.89
2022-08-26T14:06:27.269Z,24.95
2022-08-26T14:08:54.105Z,27.81
2022-08-26T14:11:21.583Z,28.07
2022-08-26T14:13:48.536Z,27.38
2022-08-26T14:16:37.693Z,27.39
2022-08-26T14:19:24.566Z,28.33
2022-08-26T14:21:51.572Z,27.47
2022-08-26T14:24:18.355Z,28.31
2022-08-26T14:26:45.197Z,27.72
2022-08-26T14:29:14.705Z,27.82
2022-08-26T14:31:43.946Z,26.16
2022-08-26T14:34:13.991Z,26.07
2022-08-26T14:36:41.122Z,25.46
2022-08-26T14:39:11.083Z,25.75
2022-08-26T14:41:53.813Z,24.18
2022-08-26T14:44:25.037Z,25.63
2022-08-26T14:46:53.328Z,26.48
2022-08-26T14:49:22.206Z,25.67
2022-08-26T14:51:49.601Z,25.14
2022-08-26T14:54:18.725Z,26.41
2022-08-26T14:56:52.662Z,25.34
2022-08-26T14:59:26.330Z,24.66
2022-08-26T15:01:54.954Z,26.21
2022-08-26T15:04:21.739Z,26.50
2022-08-26T15:06:48.877Z,26.97
2022-08-26T15:09:16.487Z,26.88
2022-08-26T15:11:43.483Z,26.43
2022-08-26T15:14:14.819Z,26.62
2022-08-26T15:16:48.606Z,27.10
2022-08-26T15:19:16.252Z,27.07
2022-08-26T15:21:45.500Z,26.66
2022-08-26T15:24:12.968Z,26.72
2022-08-26T15:26:40.093Z,26.79
2022-08-26T15:29:07.309Z,27.69
2022-08-26T15:31:34.521Z,27.53
2022-08-26T15:34:06.601Z,27.69
2022-08-26T15:36:33.933Z,27.50
2022-08-26T15:39:01.683Z,27.86
2022-08-26T15:41:29.746Z,27.92
2022-08-26T15:43:57.856Z,27.61
2022-08-26T15:46:24.881Z,29.23
2022-08-26T15:48:52.183Z,29.82
2022-08-26T15:51:31.846Z,29.44
2022-08-26T15:53:59.129Z,30.36
2022-08-26T15:56:27.941Z,29.03
2022-08-26T15:58:56.200Z,29.47
2022-08-26T16:01:27.599Z,30.47
2022-08-26T16:03:55.791Z,30.08
2022-08-26T16:06:28.957Z,29.40
2022-08-26T16:08:56.408Z,30.95
2022-08-26T16:11:24.487Z,31.09
2022-08-26T16:13:51.833Z,30.40
2022-08-26T16:16:19.674Z,30.54
2022-08-26T16:18:48.568Z,31.96
2022-08-26T16:21:18.413Z,31.59
2022-08-26T16:23:46.322Z,31.84
2022-08-26T16:26:16.499Z,32.43
2022-08-26T16:28:44.134Z,31.79
2022-08-26T16:31:11.589Z,31.58
2022-08-26T16:33:39.092Z,32.09
2022-08-26T16:36:07.534Z,31.45
2022-08-26T16:38:35.705Z,32.74
2022-08-26T16:41:02.774Z,32.14
2022-08-26T16:43:30.043Z,33.09
2022-08-26T16:45:57.299Z,33.39
2022-08-26T16:48:24.600Z,32.89
2022-08-26T16:50:52.152Z,33.01
2022-08-26T16:53:19.270Z,33.12
2022-08-26T16:55:47.832Z,33.82
2022-08-26T16:58:15.065Z,33.93
2022-08-26T17:00:42.650Z,33.70
2022-08-26T17:03:10.126Z,34.26
2022-08-26T17:05:39.927Z,34.21
2022-08-26T17:08:07.611Z,33.69
2022-08-26T17:10:35.848Z,33.83
2022-08-26T17:13:03.099Z,34.15
2022-08-26T17:15:29.962Z,34.46
2022-08-26T17:17:57.215Z,34.31
2022-08-26T17:20:25.257Z,34.31
2022-08-26T17:22:55.353Z,34.86
2022-08-26T17:25:26.017Z,34.72
2022-08-26T17:27:53.210Z,34.57
2022-08-26T17:30:21.210Z,35.21
2022-08-26T17:32:48.622Z,35.25
2022-08-26T17:35:17.067Z,35.26
2022-08-26T17:37:44.096Z,35.31
2022-08-26T17:40:15.634Z,36.02
2022-08-26T17:42:43.461Z,35.90
2022-08-26T17:45:12.015Z,35.83
2022-08-26T17:47:39.591Z,36.27
2022-08-26T17:50:09.483Z,36.79
2022-08-26T17:52:38.133Z,36.68
2022-08-26T17:55:06.820Z,36.89
2022-08-26T17:57:37.368Z,37.64
2022-08-26T18:00:14.796Z,37.63
2022-08-26T18:02:41.750Z,37.98
2022-08-26T18:05:10.021Z,38.79
2022-08-26T18:07:43.725Z,38.95
2022-08-26T18:10:13.406Z,38.97
2022-08-26T18:12:41.783Z,39.91
2022-08-26T18:15:10.640Z,40.27
2022-08-26T18:17:39.475Z,40.27
2022-08-26T18:20:09.068Z,40.48
2022-08-26T18:22:36.026Z,40.67
2022-08-26T18:25:05.018Z,41.29
2022-08-26T18:27:32.406Z,42.46
2022-08-26T18:29:59.684Z,44.64
2022-08-26T18:32:26.532Z,44.57
2022-08-26T18:34:53.484Z,45.85
2022-08-26T18:37:20.509Z,45.57
2022-08-26T18:39:47.785Z,45.29
2022-08-26T18:42:14.794Z,45.76
2022-08-26T18:44:41.706Z,46.07
2022-08-26T18:47:08.681Z,45.90
2022-08-26T18:49:35.480Z,46.12
2022-08-26T18:52:02.609Z,47.02
2022-08-26T18:54:30.137Z,47.24
2022-08-26T18:56:56.922Z,47.75
2022-08-26T18:59:29.504Z,48.64
2022-08-26T19:01:57.790Z,48.65
2022-08-26T19:04:25.048Z,49.58
2022-08-26T19:06:52.179Z,50.53
2022-08-26T19:09:20.927Z,49.97
2022-08-26T19:11:49.595Z,50.07
2022-08-26T19:14:17.554Z,49.94
2022-08-26T19:16:47.454Z,49.73
2022-08-26T19:19:15.546Z,49.85
2022-08-26T19:21:43.147Z,50.06
2022-08-26T19:24:15.597Z,49.81
2022-08-26T19:26:47.468Z,49.64
2022-08-26T19:29:15.690Z,50.05
2022-08-26T19:31:44.046Z,50.16
2022-08-26T19:34:12.290Z,49.95
2022-08-26T19:36:40.192Z,49.87
2022-08-26T19:39:12.311Z,49.67
2022-08-26T19:41:40.047Z,49.83
2022-08-26T19:44:10.226Z,49.57
2022-08-26T19:49:06.670Z,50.07
2022-08-26T19:51:35.199Z,50.25
2022-08-26T19:54:02.591Z,51.11
2022-08-26T19:56:29.936Z,50.46
2022-08-26T19:58:57.512Z,50.44
2022-08-26T20:01:24.769Z,51.85
2022-08-26T20:03:51.778Z,53.11
2022-08-26T20:06:20.239Z,52.65
2022-08-26T20:08:48.152Z,52.90
2022-08-26T20:11:19.244Z,51.97
2022-08-26T20:13:48.095Z,53.38
2022-08-26T20:16:16.445Z,53.05
2022-08-26T20:19:03.579Z,53.18
2022-08-26T20:21:35.908Z,53.93
2022-08-26T20:24:10.421Z,53.95
2022-08-26T20:26:39.060Z,54.99
2022-08-26T20:29:07.600Z,55.01
2022-08-26T20:31:35.542Z,54.66
2022-08-26T20:34:02.934Z,54.65
2022-08-26T20:36:30.525Z,54.51
2022-08-26T20:38:58.317Z,54.54
2022-08-26T20:41:26.727Z,54.88
2022-08-26T20:43:54.225Z,56.99
2022-08-26T20:46:24.699Z,57.66
2022-08-26T20:48:53.429Z,57.28
2022-08-26T20:51:21.719Z,57.74
2022-08-26T20:53:48.601Z,57.61
2022-08-26T20:56:17.294Z,57.28
2022-08-26T20:58:44.067Z,57.03
2022-08-26T21:01:18.733Z,56.71
2022-08-26T21:03:46.087Z,56.90
2022-08-26T21:06:13.105Z,56.65
2022-08-26T21:08:42.649Z,57.64
2022-08-26T21:11:10.686Z,56.77
2022-08-26T21:13:54.446Z,55.79
2022-08-26T21:16:26.106Z,55.59
2022-08-26T21:18:53.565Z,56.45
2022-08-26T21:21:25.012Z,56.33
2022-08-26T21:23:52.139Z,55.61
2022-08-26T21:26:19.171Z,55.80
2022-08-26T21:28:46.517Z,55.79
2022-08-26T21:31:16.587Z,55.26
2022-08-26T21:33:43.988Z,55.43
2022-08-26T21:36:12.114Z,55.36
2022-08-26T21:38:40.098Z,55.81
2022-08-26T21:41:08.467Z,55.73
2022-08-26T21:43:36.774Z,55.91
2022-08-26T21:46:14.635Z,56.44
2022-08-26T21:48:50.687Z,56.40
2022-08-26T21:51:20.538Z,57.75
2022-08-26T21:53:47.618Z,57.47
2022-08-26T21:56:17.167Z,56.61
2022-08-26T21:58:43.950Z,56.90
2022-08-26T22:01:17.989Z,58.47
2022-08-26T22:03:47.230Z,58.41
2022-08-26T22:06:17.554Z,58.85
2022-08-26T22:08:44.394Z,58.34
2022-08-26T22:11:11.692Z,57.69
2022-08-26T22:13:40.569Z,58.50
2022-08-26T22:16:07.807Z,57.76
2022-08-26T22:18:35.224Z,57.68
2022-08-26T22:21:05.923Z,58.48
2022-08-26T22:23:33.379Z,58.43
2022-08-26T22:26:00.362Z,58.32
2022-08-26T22:28:28.326Z,58.86
2022-08-26T22:30:55.787Z,58.38
2022-08-26T22:33:23.135Z,59.19
2022-08-26T22:35:52.061Z,58.82
2022-08-26T22:38:20.063Z,58.37
2022-08-26T22:40:56.819Z,58.35
2022-08-26T22:43:25.637Z,58.55
2022-08-26T22:45:53.193Z,58.73
2022-08-26T22:48:24.171Z,58.81
2022-08-26T22:50:55.239Z,58.69
2022-08-26T22:53:24.012Z,58.27
2022-08-26T22:55:50.773Z,58.26
2022-08-26T22:58:18.909Z,58.23
2022-08-26T23:00:46.905Z,58.63
2022-08-26T23:03:14.564Z,58.83
2022-08-26T23:05:42.235Z,58.65
2022-08-26T23:08:10.135Z,58.55
2022-08-26T23:10:37.399Z,58.43
2022-08-26T23:13:07.737Z,58.38
2022-08-26T23:15:35.541Z,58.00
2022-08-26T23:18:02.548Z,58.54
2022-08-26T23:20:29.448Z,59.22
2022-08-26T23:22:56.624Z,58.89
2022-08-26T23:25:24.428Z,60.27
2022-08-26T23:27:52.087Z,61.23
2022-08-26T23:30:23.664Z,61.11
2022-08-26T23:32:50.786Z,62.54
2022-08-26T23:35:21.774Z,62.70
2022-08-26T23:37:53.143Z,63.18
2022-08-26T23:40:26.749Z,61.54
2022-08-26T23:42:55.834Z,61.92
2022-08-26T23:45:24.825Z,60.97
2022-08-26T23:47:52.108Z,60.08
2022-08-26T23:50:21.158Z,59.38
2022-08-26T23:53:06.492Z,58.47
2022-08-26T23:55:38.724Z,59.20
2022-08-26T23:58:06.157Z,59.53
